Terminal Aerodrome Forecast
Issued by NWS Nashville, TN

Home | Current Version | Previous Version | Text Only | Print | Product List | Glossary On
Versions: 1 2 3 4 5 6 7 8 9 10 11 12 13 14 15 16 17 18 19 20 21 22 23 24 25 26 27 28 29 30 31 32 33 34 35 36 37 38 39 40 41 42 43 44 45 46 47 48 49
000
FTUS44 KOHX 220500
TAFCSV
TAF
KCSV 220520Z 2206/2306 00000KT P6SM SCT030 BKN250
      TEMPO 2208/2212 4SM BR SCT015 SCT030 BKN250
     FM221200 VRB03KT P6SM SCT020 BKN040
      TEMPO 2212/2215 BKN020 BKN040
     FM221900 VRB03KT P6SM VCTS SCT030CB BKN250
      TEMPO 2219/2223 BKN030CB BKN250=

USA.gov is the U.S. government's official web portal to all federal, state and local government web resources and services.